CheckWX is a tool to help pilots better visualize weather data.  It is not intended as a substitute for an official pre-flight weather briefing.

07:44:59 UTC

RJFS TAF
Saga Airport
Saga, Japan
TAF RJFS 190508Z 1906/2012 22006KT 9999 FEW030 BECMG 1915/1917 02003KT BECMG 2000/2003 20008KT

Jun-19@
06:00 UTC

Jun-19 @ 06:00 UTC

Jun-19@
15:00 UTC

Jun-19 @ 15:00 UTC

TAF RJFS 190508Z 1906/2012 22006KT 9999 FEW030
Wind
  • 220° at 6 KTS
Cloud Levels
  • Few at 3,000' AGL

Jun-19@
15:00 UTC

Jun-19 @ 15:00 UTC

Jun-20@
00:00 UTC

Jun-20 @ 00:00 UTC

BECMG 1915/1917 02003KT

Becoming

Becoming Conditions expected by Wed, Jun 19, 2019 @ 17:00 UTC

Wind
  • 020° at 3 KTS
Cloud Levels
  • Few at 3,000' AGL

Jun-20@
00:00 UTC

Jun-20 @ 00:00 UTC

Jun-20@
12:00 UTC

Jun-20 @ 12:00 UTC

BECMG 2000/2003 20008KT

Becoming

Becoming Conditions expected by Thu, Jun 20, 2019 @ 03:00 UTC

Wind
  • 200° at 8 KTS
Cloud Levels
  • Few at 3,000' AGL